createdAt,value
2023-04-09T00:00:27.174Z,99.90
2023-04-09T00:03:47.803Z,103.72
2023-04-09T00:07:08.057Z,93.57
2023-04-09T00:10:29.916Z,95.32
2023-04-09T00:13:50.130Z,115.03
2023-04-09T00:17:10.287Z,102.68
2023-04-09T00:20:31.291Z,101.10
2023-04-09T00:23:51.638Z,99.32
2023-04-09T00:27:13.201Z,90.50
2023-04-09T00:30:33.869Z,95.43
2023-04-09T00:33:54.225Z,87.90
2023-04-09T00:37:14.435Z,91.47
2023-04-09T00:40:35.009Z,86.03
2023-04-09T00:43:57.078Z,98.10
2023-04-09T00:47:17.363Z,98.53
2023-04-09T00:50:37.729Z,91.00
2023-04-09T00:53:58.617Z,80.35
2023-04-09T00:57:20.379Z,80.10
2023-04-09T01:00:42.049Z,87.35
2023-04-09T01:04:02.380Z,86.18
2023-04-09T01:07:29.580Z,86.93
2023-04-09T01:10:55.189Z,83.45
2023-04-09T01:14:22.789Z,80.13
2023-04-09T01:17:48.077Z,85.85
2023-04-09T01:21:16.076Z,106.53
2023-04-09T01:24:43.046Z,93.85
2023-04-09T01:28:15.437Z,92.65
2023-04-09T01:31:37.843Z,95.97
2023-04-09T01:34:59.201Z,89.82
2023-04-09T01:38:21.411Z,85.57
2023-04-09T01:41:42.547Z,88.35
2023-04-09T01:45:06.048Z,87.43
2023-04-09T01:48:27.026Z,91.47
2023-04-09T01:51:48.090Z,93.00
2023-04-09T01:55:09.368Z,85.90
2023-04-09T01:58:29.668Z,87.47
2023-04-09T02:01:56.088Z,82.63
2023-04-09T02:05:18.374Z,85.93
2023-04-09T02:08:40.961Z,81.82
2023-04-09T02:12:04.299Z,84.35
2023-04-09T02:15:25.978Z,93.78
2023-04-09T02:18:47.607Z,94.43
2023-04-09T02:22:08.883Z,96.88
2023-04-09T02:25:29.113Z,88.63
2023-04-09T02:28:50.459Z,91.97
2023-04-09T02:32:11.511Z,97.47
2023-04-09T02:35:33.050Z,92.88
2023-04-09T02:38:53.549Z,92.28
2023-04-09T02:42:14.075Z,90.90
2023-04-09T02:45:34.421Z,96.90
2023-04-09T02:48:55.134Z,101.85
2023-04-09T02:52:16.880Z,99.32
2023-04-09T02:55:37.137Z,90.55
2023-04-09T02:58:58.107Z,94.90
2023-04-09T03:02:18.611Z,85.97
2023-04-09T03:05:39.434Z,85.88
2023-04-09T03:09:01.308Z,87.57
2023-04-09T03:12:21.471Z,86.45
2023-04-09T03:15:41.805Z,87.35
2023-04-09T03:19:02.783Z,80.72
2023-04-09T03:22:23.662Z,76.15
2023-04-09T03:25:47.779Z,92.72
2023-04-09T03:29:10.573Z,89.93
2023-04-09T03:32:30.828Z,80.68
2023-04-09T03:35:51.924Z,86.82
2023-04-09T03:39:20.293Z,81.65
2023-04-09T03:42:43.176Z,76.03
2023-04-09T03:46:12.254Z,83.68
2023-04-09T03:49:33.063Z,68.38
2023-04-09T03:53:01.544Z,82.97
2023-04-09T03:56:22.411Z,73.75
2023-04-09T03:59:45.138Z,86.10
2023-04-09T04:03:07.722Z,70.90
2023-04-09T04:06:47.497Z,70.18
2023-04-09T04:10:16.788Z,68.63
2023-04-09T04:13:39.835Z,60.15
2023-04-09T04:17:04.133Z,59.30
2023-04-09T04:20:25.209Z,66.60
2023-04-09T04:23:54.905Z,59.03
2023-04-09T04:27:19.638Z,50.78
2023-04-09T04:30:42.019Z,52.88
2023-04-09T04:34:05.153Z,54.60
2023-04-09T04:37:26.216Z,48.10
2023-04-09T04:40:51.379Z,58.03
2023-04-09T04:44:12.645Z,58.00
2023-04-09T04:47:34.573Z,54.75
2023-04-09T04:51:00.755Z,51.45
2023-04-09T04:54:27.501Z,47.90
2023-04-09T04:57:52.280Z,47.60
2023-04-09T05:01:15.552Z,53.63
2023-04-09T05:04:36.966Z,54.67
2023-04-09T05:08:00.473Z,53.42
2023-04-09T05:11:21.114Z,52.85
2023-04-09T05:14:42.259Z,54.92
2023-04-09T05:18:02.555Z,47.75
2023-04-09T05:21:23.827Z,55.67
2023-04-09T05:24:48.899Z,50.33
2023-04-09T05:28:11.167Z,55.78
2023-04-09T05:31:32.265Z,55.88
2023-04-09T05:34:58.260Z,49.15
2023-04-09T05:38:20.455Z,58.45
2023-04-09T05:41:49.531Z,50.80
2023-04-09T05:45:25.785Z,45.63
2023-04-09T05:48:46.914Z,55.45
2023-04-09T05:52:07.417Z,60.38
2023-04-09T05:55:28.429Z,54.22
2023-04-09T05:58:54.813Z,50.88
2023-04-09T06:02:15.296Z,54.30
2023-04-09T06:05:35.605Z,53.92
2023-04-09T06:08:55.864Z,50.60
2023-04-09T06:12:16.455Z,50.08
2023-04-09T06:15:38.723Z,53.75
2023-04-09T06:18:58.889Z,59.92
2023-04-09T06:22:19.119Z,59.28
2023-04-09T06:25:39.658Z,49.90
2023-04-09T06:28:59.815Z,61.60
2023-04-09T06:32:21.532Z,59.45
2023-04-09T06:35:41.724Z,53.97
2023-04-09T06:39:02.032Z,53.30
2023-04-09T06:42:22.426Z,52.17
2023-04-09T06:45:49.626Z,53.65
2023-04-09T06:49:11.264Z,49.55
2023-04-09T06:52:31.458Z,47.72
2023-04-09T06:55:51.737Z,46.05
2023-04-09T06:59:11.976Z,46.90
2023-04-09T07:02:32.671Z,47.35
2023-04-09T07:05:54.543Z,64.50
2023-04-09T07:09:14.851Z,45.03
2023-04-09T07:12:35.637Z,45.45
2023-04-09T07:15:58.132Z,42.45
2023-04-09T07:19:18.579Z,42.13
2023-04-09T07:22:40.536Z,40.25
2023-04-09T07:26:02.496Z,44.88
2023-04-09T07:29:22.955Z,43.70
2023-04-09T07:32:43.484Z,46.13
2023-04-09T07:36:03.887Z,43.45
2023-04-09T07:39:25.672Z,45.85
2023-04-09T07:42:46.153Z,38.88
2023-04-09T07:46:06.637Z,47.65
2023-04-09T07:49:27.011Z,45.00
2023-04-09T07:52:47.376Z,52.78
2023-04-09T07:56:09.364Z,49.28
2023-04-09T07:59:30.783Z,53.50
2023-04-09T08:02:51.539Z,54.00
2023-04-09T08:06:12.113Z,58.35
2023-04-09T08:09:32.349Z,66.07
2023-04-09T08:12:54.119Z,53.00
2023-04-09T08:16:14.534Z,53.13
2023-04-09T08:19:34.756Z,44.70
2023-04-09T08:22:54.938Z,48.00
2023-04-09T08:26:15.535Z,48.53
2023-04-09T08:29:38.643Z,57.78
2023-04-09T08:33:00.021Z,49.60
2023-04-09T08:36:20.691Z,65.65
2023-04-09T08:39:41.994Z,56.15
2023-04-09T08:43:05.753Z,43.58
2023-04-09T08:46:27.853Z,41.90
2023-04-09T08:49:50.243Z,44.50
2023-04-09T08:53:10.784Z,46.35
2023-04-09T08:56:31.395Z,42.35
2023-04-09T08:59:51.944Z,48.97
2023-04-09T09:03:13.994Z,42.67
2023-04-09T09:06:35.747Z,39.00
2023-04-09T09:10:00.011Z,37.60
2023-04-09T09:13:28.797Z,43.78
2023-04-09T09:17:05.631Z,43.03
2023-04-09T09:20:27.750Z,43.92
2023-04-09T09:23:50.573Z,43.28
2023-04-09T09:27:11.552Z,46.08
2023-04-09T09:30:36.328Z,39.30
2023-04-09T09:34:01.102Z,37.47
2023-04-09T09:37:26.998Z,40.88
2023-04-09T09:40:48.049Z,38.97
2023-04-09T09:44:08.695Z,42.40
2023-04-09T09:47:29.686Z,40.47
2023-04-09T09:50:50.234Z,45.90
2023-04-09T09:54:16.479Z,40.72
2023-04-09T09:57:37.596Z,39.90
2023-04-09T10:00:59.554Z,39.88
2023-04-09T10:04:21.290Z,40.17
2023-04-09T10:07:42.262Z,40.25
2023-04-09T10:11:05.156Z,37.58
2023-04-09T10:14:29.292Z,37.55
2023-04-09T10:17:49.604Z,33.97
2023-04-09T10:21:13.862Z,32.80
2023-04-09T10:24:34.999Z,36.75
2023-04-09T10:28:06.794Z,37.17
2023-04-09T10:31:27.581Z,36.97
2023-04-09T10:34:48.486Z,38.70
2023-04-09T10:38:10.592Z,36.17
2023-04-09T10:41:34.215Z,37.42
2023-04-09T10:45:07.220Z,37.17
2023-04-09T10:48:29.094Z,32.90
2023-04-09T10:51:49.785Z,43.58
2023-04-09T10:55:33.869Z,36.63
2023-04-09T10:58:54.495Z,35.15
2023-04-09T11:02:37.339Z,40.85
2023-04-09T11:06:01.312Z,32.90
2023-04-09T11:09:22.475Z,37.58
2023-04-09T11:12:47.458Z,38.92
2023-04-09T11:16:12.737Z,40.72
2023-04-09T11:19:46.464Z,40.65
2023-04-09T11:23:06.780Z,40.22
2023-04-09T11:26:33.378Z,37.78
2023-04-09T11:29:58.304Z,38.28
2023-04-09T11:33:22.893Z,35.78
2023-04-09T11:36:44.574Z,36.03
2023-04-09T11:40:05.409Z,40.05
2023-04-09T11:43:25.941Z,40.55
2023-04-09T11:46:46.340Z,40.63
2023-04-09T11:50:07.296Z,41.72
2023-04-09T11:53:31.107Z,38.95
2023-04-09T11:56:55.820Z,37.58
2023-04-09T12:00:17.474Z,35.13
2023-04-09T12:03:39.032Z,37.90
2023-04-09T12:07:00.501Z,38.25
2023-04-09T12:10:27.057Z,40.28
2023-04-09T12:13:47.647Z,39.72
2023-04-09T12:17:09.729Z,41.33
2023-04-09T12:20:30.756Z,36.92
2023-04-09T12:23:51.672Z,38.55
2023-04-09T12:27:13.390Z,40.22
2023-04-09T12:30:33.695Z,35.35
2023-04-09T12:33:54.006Z,38.17
2023-04-09T12:37:14.274Z,34.65
2023-04-09T12:40:34.760Z,34.17
2023-04-09T12:43:56.357Z,35.83
2023-04-09T12:47:16.625Z,28.20
2023-04-09T12:50:38.194Z,26.75
2023-04-09T12:53:58.354Z,29.42
2023-04-09T12:57:18.582Z,29.17
2023-04-09T13:00:40.225Z,27.90
2023-04-09T13:04:01.183Z,28.95
2023-04-09T13:07:21.493Z,32.78
2023-04-09T13:10:42.000Z,26.25
2023-04-09T13:14:02.287Z,30.13
2023-04-09T13:17:24.024Z,26.95
2023-04-09T13:20:44.624Z,28.77
2023-04-09T13:24:05.391Z,29.13
2023-04-09T13:27:25.850Z,26.75
2023-04-09T13:30:46.444Z,27.90
2023-04-09T13:34:08.194Z,24.73
2023-04-09T13:37:28.457Z,28.00
2023-04-09T13:40:49.158Z,28.38
2023-04-09T13:44:09.447Z,27.55
2023-04-09T13:47:29.710Z,24.83
2023-04-09T13:50:51.449Z,24.20
2023-04-09T13:54:12.094Z,28.73
2023-04-09T13:57:32.739Z,28.40
2023-04-09T14:00:53.105Z,24.38
2023-04-09T14:04:13.443Z,27.63
2023-04-09T14:07:35.330Z,26.90
2023-04-09T14:10:56.735Z,29.35
2023-04-09T14:14:18.176Z,27.23
2023-04-09T14:17:38.444Z,28.73
2023-04-09T14:20:59.187Z,28.40
2023-04-09T14:24:22.990Z,28.45
2023-04-09T14:27:43.781Z,30.33
2023-04-09T14:31:04.630Z,28.58
2023-04-09T14:34:25.014Z,25.75
2023-04-09T14:37:46.189Z,24.80
2023-04-09T14:41:07.876Z,30.40
2023-04-09T14:44:28.051Z,28.92
2023-04-09T14:47:48.311Z,29.73
2023-04-09T14:51:10.015Z,27.20
2023-04-09T14:54:31.814Z,28.75
2023-04-09T14:57:53.384Z,28.30
2023-04-09T15:01:13.559Z,22.90
2023-04-09T15:04:33.883Z,25.88
2023-04-09T15:07:54.935Z,28.45
2023-04-09T15:11:15.851Z,24.63
2023-04-09T15:14:37.743Z,29.08
2023-04-09T15:18:00.104Z,25.40
2023-04-09T15:21:20.672Z,29.83
2023-04-09T15:24:41.450Z,24.02
2023-04-09T15:28:02.233Z,25.77
2023-04-09T15:31:23.834Z,26.30
2023-04-09T15:34:44.021Z,26.70
2023-04-09T15:38:04.880Z,27.10
2023-04-09T15:41:26.788Z,27.02
2023-04-09T15:44:47.019Z,25.42
2023-04-09T15:48:08.592Z,25.40
2023-04-09T15:51:28.964Z,26.63
2023-04-09T15:54:49.513Z,27.75
2023-04-09T15:58:10.002Z,27.67
2023-04-09T16:01:30.848Z,28.83
2023-04-09T16:04:52.427Z,29.10
2023-04-09T16:08:13.225Z,30.20
2023-04-09T16:11:35.861Z,28.08
2023-04-09T16:14:56.430Z,26.48
2023-04-09T16:18:17.272Z,25.25
2023-04-09T16:21:43.595Z,24.30
2023-04-09T16:25:03.949Z,26.58
2023-04-09T16:28:24.253Z,24.40
2023-04-09T16:31:45.090Z,22.63
2023-04-09T16:35:06.333Z,23.15
2023-04-09T16:38:29.085Z,23.60
2023-04-09T16:41:50.400Z,25.40
2023-04-09T16:45:11.092Z,24.23
2023-04-09T16:48:32.340Z,25.80
2023-04-09T16:51:53.960Z,25.67
2023-04-09T16:55:15.580Z,24.40
2023-04-09T16:58:36.261Z,24.98
2023-04-09T17:01:56.563Z,26.13
2023-04-09T17:05:17.935Z,26.27
2023-04-09T17:08:38.326Z,23.90
2023-04-09T17:12:00.933Z,26.42
2023-04-09T17:15:22.586Z,24.33
2023-04-09T17:18:43.102Z,26.17
2023-04-09T17:22:03.312Z,22.30
2023-04-09T17:25:23.610Z,24.50
2023-04-09T17:28:46.521Z,20.08
2023-04-09T17:32:06.955Z,27.35
2023-04-09T17:35:27.358Z,31.50
2023-04-09T17:38:47.671Z,27.85
2023-04-09T17:42:07.945Z,29.25
2023-04-09T17:45:29.858Z,29.20
2023-04-09T17:48:50.097Z,31.30
2023-04-09T17:52:13.006Z,26.98
2023-04-09T17:55:33.832Z,30.25
2023-04-09T17:58:54.211Z,29.58
2023-04-09T18:02:16.207Z,32.20
2023-04-09T18:05:36.670Z,32.28
2023-04-09T18:08:57.348Z,31.95
2023-04-09T18:12:17.768Z,37.53
2023-04-09T18:15:38.267Z,34.53
2023-04-09T18:18:59.831Z,35.78
2023-04-09T18:22:20.107Z,44.58
2023-04-09T18:25:40.885Z,40.08
2023-04-09T18:29:02.108Z,38.25
2023-04-09T18:32:23.621Z,32.20
2023-04-09T18:35:45.216Z,37.00
2023-04-09T18:39:05.778Z,35.17
2023-04-09T18:42:26.478Z,41.53
2023-04-09T18:45:47.078Z,36.40
2023-04-09T18:49:07.748Z,37.83
2023-04-09T18:52:29.413Z,35.17
2023-04-09T18:55:49.730Z,42.60
2023-04-09T18:59:10.058Z,39.63
2023-04-09T19:02:31.017Z,43.50
2023-04-09T19:05:52.435Z,47.38
2023-04-09T19:09:14.073Z,45.47
2023-04-09T19:12:34.930Z,44.17
2023-04-09T19:15:56.902Z,41.63
2023-04-09T19:19:17.359Z,44.58
2023-04-09T19:22:37.754Z,48.05
2023-04-09T19:26:00.242Z,55.72
2023-04-09T19:29:20.731Z,52.38
2023-04-09T19:32:41.249Z,48.83
2023-04-09T19:36:02.559Z,52.10
2023-04-09T19:39:22.932Z,55.85
2023-04-09T19:42:44.779Z,62.97
2023-04-09T19:46:06.477Z,67.13
2023-04-09T19:49:27.484Z,63.33
2023-04-09T19:52:48.182Z,66.00
2023-04-09T19:56:08.369Z,70.05
2023-04-09T19:59:31.268Z,77.38
2023-04-09T20:02:52.393Z,66.90
2023-04-09T20:06:12.715Z,64.70
2023-04-09T20:09:33.049Z,55.47
2023-04-09T20:12:53.570Z,48.00
2023-04-09T20:16:15.500Z,44.45
2023-04-09T20:19:35.821Z,38.95
2023-04-09T20:22:56.846Z,39.55
2023-04-09T20:26:18.403Z,47.08
2023-04-09T20:29:38.800Z,39.97
2023-04-09T20:33:01.129Z,33.78
2023-04-09T20:36:21.472Z,30.27
2023-04-09T20:39:41.973Z,36.65
2023-04-09T20:43:02.348Z,34.45
2023-04-09T20:46:23.293Z,35.88
2023-04-09T20:49:46.437Z,38.40
2023-04-09T20:53:06.694Z,31.27
2023-04-09T20:56:27.139Z,39.15
2023-04-09T20:59:47.367Z,39.25
2023-04-09T21:03:08.828Z,37.17
2023-04-09T21:06:30.507Z,34.88
2023-04-09T21:09:51.297Z,34.92
2023-04-09T21:13:11.848Z,35.03
2023-04-09T21:16:32.128Z,32.03
2023-04-09T21:19:53.071Z,35.95
2023-04-09T21:23:17.471Z,37.05
2023-04-09T21:26:49.896Z,33.15
2023-04-09T21:30:11.452Z,38.13
2023-04-09T21:33:31.997Z,42.55
2023-04-09T21:36:52.300Z,32.65
2023-04-09T21:40:14.786Z,35.10
2023-04-09T21:43:38.168Z,36.17
2023-04-09T21:46:58.817Z,36.63
2023-04-09T21:50:19.155Z,36.30
2023-04-09T21:53:39.717Z,37.10
2023-04-09T21:57:01.950Z,32.72
2023-04-09T22:00:22.194Z,37.45
2023-04-09T22:03:42.539Z,36.03
2023-04-09T22:07:03.203Z,37.40
2023-04-09T22:10:24.525Z,36.95
2023-04-09T22:13:46.050Z,36.40
2023-04-09T22:17:07.281Z,32.00
2023-04-09T22:20:27.497Z,36.30
2023-04-09T22:23:47.775Z,37.20
2023-04-09T22:27:08.052Z,32.15
2023-04-09T22:30:29.768Z,39.03
2023-04-09T22:33:50.011Z,33.90
2023-04-09T22:37:10.941Z,37.70
2023-04-09T22:40:31.629Z,36.85
2023-04-09T22:43:52.458Z,36.05
2023-04-09T22:47:13.989Z,41.75
2023-04-09T22:50:34.235Z,36.80
2023-04-09T22:53:54.960Z,35.40
2023-04-09T22:57:15.884Z,35.45
2023-04-09T23:00:36.406Z,37.08
2023-04-09T23:03:58.458Z,36.05
2023-04-09T23:07:18.759Z,34.90
2023-04-09T23:10:39.213Z,36.42
2023-04-09T23:13:59.473Z,32.15
2023-04-09T23:17:22.341Z,33.65
2023-04-09T23:20:44.063Z,36.25
2023-04-09T23:24:05.300Z,37.03
2023-04-09T23:27:28.541Z,33.63
2023-04-09T23:30:48.792Z,35.08
2023-04-09T23:34:09.000Z,40.63
2023-04-09T23:37:30.671Z,39.03
2023-04-09T23:40:51.396Z,38.85
2023-04-09T23:44:11.576Z,33.90
2023-04-09T23:47:33.443Z,33.53
2023-04-09T23:50:54.198Z,33.90
2023-04-09T23:54:15.939Z,32.28
2023-04-09T23:57:36.270Z,39.20
